Main page
METAR-TAF:

METAR-TAF

Airports :

Kuwait International Airport

Kuwait City, Kuwait

latitude: 29-13N, longitude: 047-59E, elevation: 55 m

Current weather observation

The report was made 1 hour and 9 minutes ago, at 23:00 UTC
Wind 6 kt from the South
Temperature 9°C
Humidity 53%
Pressure 1021 hPa
Visibility: 7000 m

METAR: OKBK 252300Z 17006KT 7000 NSC 09/M00 Q1021 NOSIG

Time: 03:09 (00:09 UTC)

Forecast

The report was made 1 hour and 24 minutes ago, at 22:45 UTC
Forecast valid from 26 at 00 UTC to 27 at 06 UTC
Wind 3 kt from variable directions
Visibility: 7000 m
Temporary
from 26 at 00 UTC to 26 at 06 UTC
Visibility: 4000 m
haze

TAF: OKBK 252245Z 2600/2706 VRB03KT 7000 NSC TEMPO 2600/2606 4000 HZ

Weather observations and forecasts of more than 4000 airports (METAR and TAF reports).

The available stations are represented by yellow and red dots on the map.

Hover mouse over dot to see the name of the station.

Then click to see weather observations and forecasts.

To change the map : click on the green buttons with a black cross to zoom in, on the green button with a dash to zoom out, or on the green arrows for adjacent maps.


METAR-TAF: